Time;durP1;ratioP1;P1;durP2;ratioP2;P2;SDS_P1;SDS_P2;PMS_P1;PMS_P2;Temp;Humidity;BMP_temperature;BMP_pressure;BME280_temperature;BME280_humidity;BME280_pressure;Samples;Min_cycle;Max_cycle;Signal;HPM_P1;HPM_P2
2022/02/22 00:02:06;;;;;;;38.17;5.25;;;7.40;78.80;;;;;;5075379;28;20066;-61
2022/02/22 00:04:36;;;;;;;33.35;4.60;;;7.40;78.70;;;;;;5092928;28;20024;-61
2022/02/22 00:07:03;;;;;;;32.20;4.93;;;7.40;78.80;;;;;;5092037;28;20026;-62
2022/02/22 00:09:29;;;;;;;39.50;6.75;;;7.40;78.90;;;;;;5091451;28;20059;-61
2022/02/22 00:11:55;;;;;;;33.83;4.65;;;7.40;78.90;;;;;;5092067;28;20081;-60
2022/02/22 00:14:20;;;;;;;34.80;4.80;;;7.40;78.90;;;;;;5088983;28;20032;-60
2022/02/22 00:16:47;;;;;;;23.80;4.32;;;7.40;78.80;;;;;;5095587;28;20482;-64
2022/02/22 00:19:12;;;;;;;29.65;5.22;;;7.40;78.90;;;;;;5056255;28;20127;-60
2022/02/22 00:21:38;;;;;;;24.48;4.80;;;7.40;79.00;;;;;;5090838;28;20099;-60
2022/02/22 00:24:04;;;;;;;29.95;4.32;;;7.40;79.00;;;;;;5072862;28;20043;-60
2022/02/22 00:26:30;;;;;;;31.52;4.75;;;7.40;79.00;;;;;;5069634;28;20626;-62
2022/02/22 00:28:55;;;;;;;26.33;4.82;;;7.40;79.00;;;;;;5092261;28;20032;-62
2022/02/22 00:31:22;;;;;;;33.20;5.07;;;7.40;78.90;;;;;;5091900;28;20106;-63
2022/02/22 00:33:48;;;;;;;25.48;4.55;;;7.40;78.80;;;;;;5090865;28;20435;-63
2022/02/22 00:36:13;;;;;;;31.63;5.05;;;7.40;78.70;;;;;;5073367;28;20043;-63
2022/02/22 00:38:39;;;;;;;22.08;4.50;;;7.40;78.80;;;;;;5091885;28;20111;-62
2022/02/22 00:41:05;;;;;;;20.92;3.70;;;7.40;78.80;;;;;;5075014;28;20179;-63
2022/02/22 00:43:30;;;;;;;27.95;5.15;;;7.40;78.80;;;;;;5053839;28;20037;-64
2022/02/22 00:45:59;;;;;;;23.58;4.05;;;7.30;78.60;;;;;;5096157;28;20394;-63
2022/02/22 00:48:25;;;;;;;27.88;4.75;;;7.30;78.70;;;;;;5076068;28;20028;-63
2022/02/22 00:50:51;;;;;;;27.02;4.45;;;7.30;78.70;;;;;;5091810;28;20055;-63
2022/02/22 00:53:17;;;;;;;37.63;5.40;;;7.30;78.80;;;;;;5064844;28;20136;-62
2022/02/22 00:55:43;;;;;;;26.35;4.35;;;7.30;78.80;;;;;;5092349;28;20032;-63
2022/02/22 00:58:08;;;;;;;33.17;5.30;;;7.30;78.90;;;;;;5071615;28;20043;-63
2022/02/22 01:00:34;;;;;;;30.00;5.03;;;7.30;78.80;;;;;;5071639;28;20048;-61
2022/02/22 01:03:00;;;;;;;37.03;4.93;;;7.30;78.90;;;;;;5069587;28;20469;-60
2022/02/22 01:05:25;;;;;;;36.05;5.20;;;7.30;78.90;;;;;;5078443;28;20028;-61
2022/02/22 01:07:51;;;;;;;26.00;5.30;;;7.30;78.90;;;;;;5090618;28;20220;-61
2022/02/22 01:10:17;;;;;;;26.70;5.15;;;7.30;78.90;;;;;;5090966;28;20028;-63
2022/02/22 01:12:43;;;;;;;25.63;4.13;;;7.30;79.00;;;;;;5090020;28;20383;-63
2022/02/22 01:15:09;;;;;;;28.67;4.50;;;7.30;79.10;;;;;;5090298;28;20035;-62
2022/02/22 01:17:34;;;;;;;28.23;4.65;;;7.30;79.20;;;;;;5072264;28;21281;-60
2022/02/22 01:20:05;;;;;;;23.95;4.40;;;7.20;79.30;;;;;;5100053;28;20714;-62
2022/02/22 01:22:31;;;;;;;29.67;4.05;;;7.20;79.40;;;;;;5092192;28;20368;-63
2022/02/22 01:24:57;;;;;;;26.30;4.28;;;7.20;79.40;;;;;;5089598;28;20036;-61
2022/02/22 01:27:22;;;;;;;25.42;5.03;;;7.20;79.50;;;;;;5090232;28;20031;-61
2022/02/22 01:29:48;;;;;;;29.85;5.32;;;7.20;79.60;;;;;;5069068;28;20030;-61
2022/02/22 01:32:14;;;;;;;30.27;4.95;;;7.20;79.60;;;;;;5055558;28;20055;-61
2022/02/22 01:34:41;;;;;;;31.88;5.40;;;7.20;79.80;;;;;;5090103;28;20067;-62
2022/02/22 01:37:07;;;;;;;27.95;4.18;;;7.20;79.80;;;;;;5085589;28;20039;-62
2022/02/22 01:39:33;;;;;;;35.33;4.53;;;7.20;79.90;;;;;;5084652;28;20032;-62
2022/02/22 01:42:01;;;;;;;26.17;5.68;;;7.10;79.90;;;;;;5089217;28;20028;-61
2022/02/22 01:44:26;;;;;;;37.13;5.70;;;7.10;80.00;;;;;;5088896;28;20038;-62
2022/02/22 01:46:57;;;;;;;21.38;4.90;;;7.10;80.00;;;;;;5090731;28;20546;-61
2022/02/22 01:49:23;;;;;;;32.00;4.53;;;7.10;80.10;;;;;;5089901;28;20692;-61
2022/02/22 01:51:49;;;;;;;25.75;4.38;;;7.10;80.10;;;;;;5090048;28;20030;-62
2022/02/22 01:54:15;;;;;;;24.58;4.10;;;7.00;80.10;;;;;;5071026;28;20094;-62
2022/02/22 01:56:41;;;;;;;34.08;6.07;;;7.00;80.10;;;;;;5089836;28;20039;-62
2022/02/22 01:59:07;;;;;;;29.65;5.50;;;7.00;80.20;;;;;;5088626;28;20056;-64
2022/02/22 02:01:33;;;;;;;28.40;5.13;;;6.90;80.20;;;;;;5090718;28;20027;-64
2022/02/22 02:04:05;;;;;;;22.42;4.55;;;6.90;80.30;;;;;;5052523;28;20395;-64
2022/02/22 02:06:38;;;;;;;42.95;6.22;;;6.90;80.30;;;;;;5090944;28;20032;-64
2022/02/22 02:09:05;;;;;;;31.65;5.43;;;6.90;80.30;;;;;;5089888;28;20028;-63
2022/02/22 02:11:46;;;;;;;27.98;4.50;;;6.90;80.30;;;;;;5089752;28;20032;-62
2022/02/22 02:14:11;;;;;;;27.00;4.53;;;6.90;80.30;;;;;;5071724;28;20458;-62
2022/02/22 02:16:38;;;;;;;33.13;4.97;;;6.80;80.30;;;;;;5090261;28;20119;-63
2022/02/22 02:19:04;;;;;;;25.25;4.00;;;6.80;80.50;;;;;;5089492;28;20028;-63
2022/02/22 02:21:31;;;;;;;26.92;4.30;;;6.70;80.50;;;;;;5072347;28;20480;-65
2022/02/22 02:24:11;;;;;;;29.27;5.47;;;6.70;80.50;;;;;;5083043;28;20422;-63
2022/02/22 02:26:38;;;;;;;28.58;4.47;;;6.70;80.50;;;;;;5091646;28;20032;-63
2022/02/22 02:29:08;;;;;;;29.92;4.90;;;6.70;80.60;;;;;;5070748;28;20490;-63
2022/02/22 02:31:36;;;;;;;24.30;4.00;;;6.70;80.70;;;;;;5095916;28;20032;-63
2022/02/22 02:34:02;;;;;;;24.23;4.20;;;6.70;80.80;;;;;;5090560;28;20324;-64
2022/02/22 02:36:31;;;;;;;34.75;4.95;;;6.60;80.80;;;;;;5089101;28;20028;-63
2022/02/22 02:38:56;;;;;;;30.88;5.60;;;6.60;80.80;;;;;;5088707;28;20073;-63
2022/02/22 02:41:22;;;;;;;26.70;4.55;;;6.60;80.80;;;;;;5070900;28;20036;-63
2022/02/22 02:43:48;;;;;;;26.38;4.80;;;6.60;80.80;;;;;;5067725;28;20032;-61
2022/02/22 02:46:13;;;;;;;30.10;5.68;;;6.60;80.90;;;;;;5063132;28;20097;-63
2022/02/22 02:48:39;;;;;;;27.40;4.68;;;6.60;80.90;;;;;;5071555;28;20508;-61
2022/02/22 02:51:05;;;;;;;23.02;4.82;;;6.60;80.90;;;;;;5087959;28;20473;-61
2022/02/22 02:53:30;;;;;;;24.05;5.43;;;6.60;80.90;;;;;;5070876;28;20081;-63
2022/02/22 02:55:56;;;;;;;23.27;4.45;;;6.60;80.90;;;;;;5055222;28;20041;-63
2022/02/22 02:58:22;;;;;;;25.50;3.90;;;6.60;80.90;;;;;;5071708;28;20037;-63
2022/02/22 03:00:47;;;;;;;22.65;4.63;;;6.60;81.00;;;;;;5088956;28;20083;-64
2022/02/22 03:03:13;;;;;;;32.78;5.43;;;6.60;81.00;;;;;;5070963;28;20024;-62
2022/02/22 03:05:38;;;;;;;28.25;4.97;;;6.50;81.10;;;;;;5070663;28;20024;-63
2022/02/22 03:08:04;;;;;;;23.90;4.65;;;6.50;81.20;;;;;;5089100;28;20016;-62
2022/02/22 03:10:30;;;;;;;29.45;5.22;;;6.50;81.20;;;;;;5087937;28;20459;-63
2022/02/22 03:12:56;;;;;;;27.83;5.35;;;6.50;81.30;;;;;;5067279;28;20028;-63
2022/02/22 03:15:21;;;;;;;25.33;4.63;;;6.50;81.30;;;;;;5070313;28;20063;-63
2022/02/22 03:17:47;;;;;;;25.08;4.38;;;6.40;81.40;;;;;;5084139;28;20032;-63
2022/02/22 03:20:13;;;;;;;29.70;5.10;;;6.40;81.60;;;;;;5088226;28;20020;-63
2022/02/22 03:22:43;;;;;;;31.25;4.25;;;6.40;81.60;;;;;;5088586;28;20028;-63
2022/02/22 03:25:09;;;;;;;28.27;5.13;;;6.40;81.80;;;;;;5074754;28;20082;-61
2022/02/22 03:27:35;;;;;;;29.73;5.45;;;6.40;81.90;;;;;;5088817;28;20024;-62
2022/02/22 03:30:01;;;;;;;24.15;4.53;;;6.30;81.90;;;;;;5070567;28;20348;-63
2022/02/22 03:32:27;;;;;;;25.77;4.72;;;6.30;82.00;;;;;;5088731;28;20098;-63
2022/02/22 03:34:52;;;;;;;25.50;4.18;;;6.30;81.90;;;;;;5088097;28;20527;-64
2022/02/22 03:37:18;;;;;;;30.10;4.53;;;6.30;82.00;;;;;;5096211;28;20478;-63
2022/02/22 03:39:44;;;;;;;25.52;5.40;;;6.30;82.10;;;;;;5098645;28;20082;-64
2022/02/22 03:42:09;;;;;;;23.38;4.20;;;6.30;82.30;;;;;;5088452;28;20032;-64
2022/02/22 03:44:35;;;;;;;30.55;5.10;;;6.20;82.40;;;;;;5085846;28;20032;-61
2022/02/22 03:47:01;;;;;;;30.20;4.60;;;6.30;82.50;;;;;;5088117;28;20497;-63
2022/02/22 03:49:26;;;;;;;31.10;4.68;;;6.30;82.50;;;;;;5059003;28;20032;-64
2022/02/22 03:51:52;;;;;;;28.92;4.53;;;6.30;82.60;;;;;;5068899;28;20033;-64
2022/02/22 03:54:18;;;;;;;35.40;4.95;;;6.20;82.70;;;;;;5067816;28;20036;-63
2022/02/22 03:56:43;;;;;;;25.48;4.95;;;6.20;82.70;;;;;;5082235;28;20042;-61
2022/02/22 03:59:09;;;;;;;25.83;3.85;;;6.20;82.80;;;;;;5067294;28;20132;-62
2022/02/22 04:01:35;;;;;;;33.75;5.40;;;6.30;82.90;;;;;;5068260;28;20029;-61
2022/02/22 04:04:00;;;;;;;31.23;5.28;;;6.30;82.90;;;;;;5068353;28;20039;-60
2022/02/22 04:06:26;;;;;;;25.58;4.03;;;6.30;82.90;;;;;;5069038;28;20024;-63
2022/02/22 04:08:52;;;;;;;32.35;4.47;;;6.30;82.90;;;;;;5070235;28;20094;-63
2022/02/22 04:11:18;;;;;;;23.98;4.05;;;6.30;83.00;;;;;;5063696;28;20024;-62
2022/02/22 04:13:43;;;;;;;28.00;4.75;;;6.20;83.00;;;;;;5071551;28;20097;-63
2022/02/22 04:16:09;;;;;;;32.28;4.53;;;6.30;83.00;;;;;;5071799;28;20036;-63
2022/02/22 04:18:35;;;;;;;25.45;3.95;;;6.20;83.00;;;;;;5072237;28;20079;-63
2022/02/22 04:21:01;;;;;;;21.88;3.58;;;6.30;83.00;;;;;;5071397;28;20024;-63
2022/02/22 04:23:26;;;;;;;19.23;3.80;;;6.20;83.00;;;;;;5070984;28;20029;-63
2022/02/22 04:25:52;;;;;;;29.20;5.30;;;6.30;83.00;;;;;;5069802;28;20528;-63
2022/02/22 04:28:18;;;;;;;26.40;4.72;;;6.20;83.00;;;;;;5068493;28;20041;-63
2022/02/22 04:30:45;;;;;;;23.20;4.07;;;6.30;83.00;;;;;;5070879;28;20062;-64
2022/02/22 04:33:10;;;;;;;27.40;4.93;;;6.20;83.00;;;;;;5070586;28;20528;-62
2022/02/22 04:35:36;;;;;;;25.25;4.22;;;6.30;83.00;;;;;;5071155;28;20024;-62
2022/02/22 04:38:02;;;;;;;26.17;4.80;;;6.30;83.00;;;;;;5070427;28;20037;-63
2022/02/22 04:40:29;;;;;;;28.40;4.30;;;6.30;82.90;;;;;;5070681;28;20089;-64
2022/02/22 04:42:55;;;;;;;26.17;4.28;;;6.30;82.90;;;;;;5070798;28;20029;-64
2022/02/22 04:45:21;;;;;;;35.05;5.45;;;6.30;82.90;;;;;;5071300;28;20029;-63
2022/02/22 04:47:47;;;;;;;27.80;4.80;;;6.30;82.90;;;;;;5074832;28;20613;-64
2022/02/22 04:50:14;;;;;;;29.63;4.82;;;6.30;82.90;;;;;;5080279;28;20028;-62
2022/02/22 04:52:40;;;;;;;24.42;4.30;;;6.20;82.80;;;;;;5074903;28;20082;-61
2022/02/22 04:55:09;;;;;;;30.10;4.72;;;6.20;82.90;;;;;;5076060;28;20452;-61
2022/02/22 04:57:36;;;;;;;28.52;5.30;;;6.20;82.90;;;;;;5071075;28;20021;-64
2022/02/22 05:00:07;;;;;;;23.45;3.60;;;6.20;82.90;;;;;;5082163;28;20048;-61
2022/02/22 05:02:33;;;;;;;26.83;4.35;;;6.20;83.00;;;;;;5072767;28;20154;-61
2022/02/22 05:04:59;;;;;;;30.20;4.78;;;6.10;83.00;;;;;;5090256;28;20103;-62
2022/02/22 05:07:24;;;;;;;30.00;5.35;;;6.10;83.10;;;;;;5068085;28;20012;-63
2022/02/22 05:09:50;;;;;;;34.10;6.47;;;6.10;83.30;;;;;;5090909;28;20032;-62
2022/02/22 05:12:16;;;;;;;25.17;3.72;;;6.00;83.30;;;;;;5090422;28;20471;-62
2022/02/22 05:14:41;;;;;;;27.45;5.60;;;6.00;83.40;;;;;;5090311;28;20490;-61
2022/02/22 05:17:07;;;;;;;19.15;3.80;;;6.00;83.60;;;;;;5072824;28;20036;-61
2022/02/22 05:19:33;;;;;;;25.42;4.35;;;6.00;83.60;;;;;;5090817;28;20028;-61
2022/02/22 05:21:59;;;;;;;27.98;4.45;;;5.90;83.70;;;;;;5073003;28;20043;-61
2022/02/22 05:24:24;;;;;;;35.38;5.93;;;5.90;83.80;;;;;;5089400;28;20032;-60
2022/02/22 05:26:50;;;;;;;29.90;4.18;;;5.90;83.90;;;;;;5073275;28;20455;-61
2022/02/22 05:29:15;;;;;;;19.33;3.30;;;5.80;83.90;;;;;;5090242;28;20452;-61
2022/02/22 05:31:42;;;;;;;23.92;3.78;;;5.80;84.60;;;;;;5072481;28;20119;-61
2022/02/22 05:34:07;;;;;;;20.83;3.38;;;5.80;84.10;;;;;;5089680;28;20039;-63
2022/02/22 05:36:33;;;;;;;26.65;3.80;;;5.80;84.20;;;;;;5090762;28;20036;-61
2022/02/22 05:38:59;;;;;;;28.83;5.72;;;5.80;84.20;;;;;;5090482;28;20458;-61
2022/02/22 05:41:24;;;;;;;28.90;5.90;;;5.80;84.30;;;;;;5086955;28;20063;-61
2022/02/22 05:43:50;;;;;;;26.63;5.13;;;5.80;84.40;;;;;;5090628;28;20032;-61
2022/02/22 05:46:17;;;;;;;26.08;4.45;;;5.80;84.50;;;;;;5071790;28;20382;-61
2022/02/22 05:48:43;;;;;;;37.40;5.68;;;5.70;84.60;;;;;;5070460;28;20393;-61
2022/02/22 05:51:09;;;;;;;31.77;4.25;;;5.70;84.80;;;;;;5070792;28;20017;-61
2022/02/22 05:53:41;;;;;;;27.58;5.30;;;5.70;84.90;;;;;;5071744;28;20386;-60
2022/02/22 05:56:07;;;;;;;34.92;5.43;;;5.70;84.90;;;;;;5090530;28;20026;-63
2022/02/22 05:58:33;;;;;;;28.85;4.13;;;5.70;85.10;;;;;;5091556;28;20036;-63
2022/02/22 06:00:59;;;;;;;21.80;4.05;;;5.70;85.40;;;;;;5080920;28;20093;-63
2022/02/22 06:03:25;;;;;;;22.73;3.53;;;5.70;85.40;;;;;;5093303;28;20036;-63
2022/02/22 06:05:51;;;;;;;35.13;6.07;;;5.70;85.50;;;;;;5090057;28;20032;-63
2022/02/22 06:08:16;;;;;;;31.00;4.05;;;5.70;85.50;;;;;;5090033;28;20039;-63
2022/02/22 06:10:42;;;;;;;22.48;3.72;;;5.70;85.40;;;;;;5070959;28;20043;-62
2022/02/22 06:13:08;;;;;;;28.70;4.47;;;5.70;85.40;;;;;;5089249;28;20028;-65
2022/02/22 06:15:33;;;;;;;26.35;4.07;;;5.70;85.30;;;;;;5089615;28;20509;-63
2022/02/22 06:17:59;;;;;;;24.23;3.33;;;5.70;85.20;;;;;;5086664;28;20537;-63
2022/02/22 06:20:27;;;;;;;25.80;4.22;;;5.70;84.80;;;;;;5088647;28;20031;-61
2022/02/22 06:22:53;;;;;;;26.52;5.00;;;5.60;84.60;;;;;;5071347;28;20024;-61
2022/02/22 06:25:18;;;;;;;25.60;4.00;;;5.60;85.10;;;;;;5089094;28;20020;-61
2022/02/22 06:27:53;;;;;;;17.02;3.25;;;5.60;84.40;;;;;;5089579;28;20036;-61
2022/02/22 06:30:21;;;;;;;17.88;3.63;;;5.60;84.10;;;;;;5089119;28;20047;-61
2022/02/22 06:32:47;;;;;;;19.77;3.42;;;5.50;83.80;;;;;;5090167;28;20066;-60
2022/02/22 06:35:13;;;;;;;22.23;4.00;;;5.50;83.80;;;;;;5090887;28;20138;-60
2022/02/22 06:37:39;;;;;;;26.17;4.10;;;5.50;84.00;;;;;;5090208;28;20036;-60
2022/02/22 06:40:07;;;;;;;25.60;4.57;;;5.50;84.20;;;;;;5089640;28;20034;-60
2022/02/22 06:42:34;;;;;;;21.52;4.15;;;5.50;84.40;;;;;;5088971;28;20028;-61
2022/02/22 06:45:00;;;;;;;24.85;4.18;;;5.50;84.50;;;;;;5089317;28;20024;-61
2022/02/22 06:47:26;;;;;;;28.38;3.83;;;5.60;84.50;;;;;;5083639;28;20037;-60
2022/02/22 06:49:51;;;;;;;26.20;4.60;;;5.60;84.50;;;;;;5077451;28;20036;-60
2022/02/22 06:52:20;;;;;;;29.05;4.88;;;5.60;85.00;;;;;;5086651;28;20027;-61
2022/02/22 06:54:47;;;;;;;26.70;5.57;;;5.60;85.40;;;;;;5088508;28;20040;-60
2022/02/22 06:57:13;;;;;;;25.20;4.95;;;5.60;85.50;;;;;;5084695;28;20024;-61
2022/02/22 06:59:38;;;;;;;21.25;4.72;;;5.60;85.50;;;;;;5089236;28;20552;-60
2022/02/22 07:02:04;;;;;;;34.80;5.07;;;5.60;85.70;;;;;;5090250;28;20032;-60
2022/02/22 07:04:30;;;;;;;19.73;4.28;;;5.60;85.80;;;;;;5089725;28;20028;-60
2022/02/22 07:06:55;;;;;;;21.48;4.15;;;5.50;85.80;;;;;;5089018;28;20371;-63
2022/02/22 07:09:21;;;;;;;29.63;4.10;;;5.60;85.90;;;;;;5089401;28;20406;-63
2022/02/22 07:11:47;;;;;;;30.83;5.68;;;5.60;86.00;;;;;;5078995;28;20063;-63
2022/02/22 07:14:13;;;;;;;18.80;3.55;;;5.60;86.10;;;;;;5070460;28;20482;-63
2022/02/22 07:16:38;;;;;;;25.92;4.78;;;5.60;86.10;;;;;;5091434;28;20561;-63
2022/02/22 07:19:04;;;;;;;21.67;4.00;;;5.60;86.10;;;;;;5088077;28;20111;-63
2022/02/22 07:21:30;;;;;;;21.83;4.13;;;5.60;86.10;;;;;;5068132;28;20059;-61
2022/02/22 07:23:55;;;;;;;20.65;4.25;;;5.70;86.20;;;;;;5049836;28;20074;-60
2022/02/22 07:26:21;;;;;;;32.95;4.88;;;5.70;86.20;;;;;;5062555;28;20035;-61
2022/02/22 07:28:47;;;;;;;23.65;4.03;;;5.70;86.20;;;;;;5071755;28;20394;-60
2022/02/22 07:31:13;;;;;;;21.20;4.60;;;5.70;86.30;;;;;;5065740;28;20143;-61
2022/02/22 07:33:39;;;;;;;22.70;4.43;;;5.70;86.30;;;;;;5071732;28;20035;-61
2022/02/22 07:36:09;;;;;;;29.05;4.95;;;5.80;86.30;;;;;;5089703;28;20027;-61
2022/02/22 07:38:35;;;;;;;17.27;3.90;;;5.80;86.40;;;;;;5067194;28;20035;-60
2022/02/22 07:41:01;;;;;;;19.52;3.63;;;5.80;86.30;;;;;;5066730;28;20020;-60
2022/02/22 07:43:27;;;;;;;29.48;4.85;;;5.80;86.30;;;;;;5086469;28;20335;-60
2022/02/22 07:45:53;;;;;;;23.45;4.10;;;5.80;86.30;;;;;;5092931;28;20026;-62
2022/02/22 07:48:18;;;;;;;16.75;3.50;;;5.80;86.30;;;;;;5092691;28;20360;-63
2022/02/22 07:50:44;;;;;;;20.42;3.95;;;5.80;86.30;;;;;;5092962;28;20415;-63
2022/02/22 07:53:10;;;;;;;26.05;4.07;;;5.80;86.30;;;;;;5091647;28;20028;-63
2022/02/22 07:55:35;;;;;;;22.02;4.18;;;5.80;86.30;;;;;;5091371;28;20034;-63
2022/02/22 07:58:01;;;;;;;21.90;3.63;;;5.70;86.30;;;;;;5066262;28;20044;-61
2022/02/22 08:00:27;;;;;;;16.92;3.75;;;5.80;86.40;;;;;;5089641;28;20044;-61
2022/02/22 08:02:55;;;;;;;18.17;3.92;;;5.80;86.50;;;;;;5091683;28;20101;-62
2022/02/22 08:05:22;;;;;;;23.58;3.78;;;5.90;86.60;;;;;;5090644;28;20032;-64
2022/02/22 08:07:48;;;;;;;30.27;5.40;;;5.90;86.50;;;;;;5090328;28;20032;-63
2022/02/22 08:10:14;;;;;;;24.98;4.20;;;6.00;86.50;;;;;;5070365;28;20036;-64
2022/02/22 08:12:40;;;;;;;20.67;3.67;;;6.00;86.40;;;;;;5090317;28;20040;-63
2022/02/22 08:15:07;;;;;;;27.05;4.03;;;6.10;86.40;;;;;;5074600;28;20061;-63
2022/02/22 08:17:33;;;;;;;28.77;4.28;;;6.10;86.40;;;;;;5100697;28;20585;-62
2022/02/22 08:20:00;;;;;;;19.50;3.50;;;6.20;86.30;;;;;;5067644;28;20039;-61
2022/02/22 08:22:25;;;;;;;24.27;3.50;;;6.20;86.40;;;;;;5091944;28;20074;-60
2022/02/22 08:24:51;;;;;;;25.45;4.28;;;6.30;86.70;;;;;;5091824;28;20494;-60
2022/02/22 08:27:19;;;;;;;25.98;4.10;;;6.30;86.50;;;;;;5091763;28;20036;-60
2022/02/22 08:29:44;;;;;;;21.67;4.30;;;6.30;86.60;;;;;;5088935;28;20180;-61
2022/02/22 08:32:10;;;;;;;19.85;4.05;;;6.40;86.60;;;;;;5089873;28;20074;-61
2022/02/22 08:34:36;;;;;;;15.02;3.00;;;6.40;86.70;;;;;;5073205;28;20564;-61
2022/02/22 08:37:02;;;;;;;18.88;3.78;;;6.40;86.60;;;;;;5092339;28;20479;-60
2022/02/22 08:39:28;;;;;;;18.92;3.45;;;6.50;86.70;;;;;;5090912;28;20036;-60
2022/02/22 08:41:54;;;;;;;22.63;4.05;;;6.50;86.60;;;;;;5091715;28;20210;-60
2022/02/22 08:44:20;;;;;;;24.92;4.18;;;6.50;86.60;;;;;;5088296;28;21387;-61
2022/02/22 08:46:48;;;;;;;16.60;3.88;;;6.60;86.60;;;;;;5090634;28;20035;-63
2022/02/22 08:49:14;;;;;;;16.02;3.25;;;6.60;86.60;;;;;;5091910;28;20053;-63
2022/02/22 08:51:40;;;;;;;26.17;5.43;;;6.60;86.60;;;;;;5090762;28;20249;-62
2022/02/22 08:54:08;;;;;;;18.00;3.80;;;6.70;86.60;;;;;;5086332;28;20098;-61
2022/02/22 08:56:34;;;;;;;28.88;5.03;;;6.70;86.60;;;;;;5091284;28;20036;-61
2022/02/22 08:58:59;;;;;;;20.45;4.50;;;6.80;86.50;;;;;;5083399;28;20124;-61
2022/02/22 09:01:25;;;;;;;23.70;4.70;;;6.80;86.30;;;;;;5089115;28;20557;-62
2022/02/22 09:03:51;;;;;;;30.58;5.75;;;6.90;86.30;;;;;;5085586;28;20032;-63
2022/02/22 09:06:16;;;;;;;25.58;5.78;;;6.90;86.30;;;;;;5089299;28;20510;-61
2022/02/22 09:08:42;;;;;;;24.30;4.63;;;6.90;86.90;;;;;;5071294;28;20133;-63
2022/02/22 09:11:08;;;;;;;20.83;5.03;;;7.00;86.40;;;;;;5076945;28;20051;-63
2022/02/22 09:13:33;;;;;;;20.48;5.53;;;7.00;86.30;;;;;;5090883;28;20081;-63
2022/02/22 09:15:59;;;;;;;23.25;5.00;;;7.10;86.30;;;;;;5091253;28;20043;-63
2022/02/22 09:18:25;;;;;;;31.00;5.35;;;7.20;86.30;;;;;;5091422;28;20031;-63
2022/02/22 09:20:51;;;;;;;23.08;5.28;;;7.30;86.20;;;;;;5091373;28;20028;-63
2022/02/22 09:23:16;;;;;;;31.02;6.35;;;7.30;85.80;;;;;;5090511;28;20032;-63
2022/02/22 09:25:42;;;;;;;23.38;6.75;;;7.30;85.70;;;;;;5090313;28;20109;-63
2022/02/22 09:28:09;;;;;;;26.05;6.35;;;7.30;85.70;;;;;;5083813;28;20030;-63
2022/02/22 09:30:35;;;;;;;25.10;5.43;;;7.40;85.70;;;;;;5091708;28;20028;-63
2022/02/22 09:33:02;;;;;;;25.17;5.78;;;7.40;85.60;;;;;;5086827;28;20296;-60
2022/02/22 09:35:29;;;;;;;36.58;7.43;;;7.50;85.40;;;;;;5100271;28;20027;-61
2022/02/22 09:37:56;;;;;;;24.13;6.05;;;7.50;85.20;;;;;;5095928;28;20144;-61
2022/02/22 09:40:22;;;;;;;28.77;5.68;;;7.60;84.90;;;;;;5089556;28;20061;-61
2022/02/22 09:42:48;;;;;;;26.45;5.95;;;7.60;84.80;;;;;;5089446;28;20063;-63
2022/02/22 09:45:15;;;;;;;32.60;5.57;;;7.60;84.40;;;;;;5090473;28;20430;-62
2022/02/22 09:47:42;;;;;;;24.08;5.80;;;7.60;84.60;;;;;;5088103;28;20379;-61
2022/02/22 09:50:09;;;;;;;35.08;6.50;;;7.60;84.30;;;;;;5089296;28;20028;-61
2022/02/22 09:52:35;;;;;;;25.83;6.35;;;7.60;84.20;;;;;;5090173;28;20052;-60
2022/02/22 09:55:01;;;;;;;15.95;5.57;;;7.70;84.10;;;;;;5089267;28;20039;-61
2022/02/22 09:57:26;;;;;;;29.67;5.88;;;7.70;84.10;;;;;;5072613;28;20483;-63
2022/02/22 09:59:52;;;;;;;26.55;5.90;;;7.70;84.00;;;;;;5089428;28;20052;-64
2022/02/22 10:02:18;;;;;;;22.63;5.70;;;7.70;83.70;;;;;;5057266;28;20024;-64
2022/02/22 10:04:49;;;;;;;30.05;6.18;;;7.70;83.80;;;;;;5070244;28;20020;-62
2022/02/22 10:07:15;;;;;;;30.88;6.25;;;7.70;83.70;;;;;;5090120;28;20456;-62
2022/02/22 10:09:55;;;;;;;21.88;5.30;;;7.70;83.60;;;;;;5089905;28;20024;-64
2022/02/22 10:12:35;;;;;;;24.23;4.95;;;7.70;83.50;;;;;;5089632;28;20031;-61
2022/02/22 10:15:03;;;;;;;25.67;5.25;;;7.70;83.50;;;;;;5089012;28;20387;-61
2022/02/22 10:17:38;;;;;;;25.70;5.15;;;7.70;83.30;;;;;;5085428;28;20106;-63
2022/02/22 10:20:06;;;;;;;26.88;5.88;;;7.80;83.10;;;;;;5086743;28;20033;-63
2022/02/22 10:22:32;;;;;;;30.20;6.82;;;7.80;83.30;;;;;;5089286;28;20020;-63
2022/02/22 10:25:11;;;;;;;19.63;5.18;;;7.80;83.40;;;;;;5089258;28;20077;-63
2022/02/22 10:27:45;;;;;;;24.73;6.05;;;7.80;83.70;;;;;;5089996;28;20451;-63
2022/02/22 10:30:38;;;;;;;28.85;5.35;;;7.80;83.90;;;;;;5089732;28;20131;-61
2022/02/22 10:33:13;;;;;;;24.42;6.80;;;7.90;84.00;;;;;;5089637;28;20034;-63
2022/02/22 10:35:39;;;;;;;26.30;6.43;;;7.90;84.10;;;;;;5102649;28;20032;-63
2022/02/22 10:38:15;;;;;;;29.70;6.50;;;7.80;84.10;;;;;;5089930;28;20111;-63
2022/02/22 10:40:42;;;;;;;24.75;5.50;;;7.90;84.40;;;;;;5089439;28;20031;-64
2022/02/22 10:43:18;;;;;;;26.17;5.55;;;7.90;84.60;;;;;;5086454;28;20474;-63
2022/02/22 10:45:48;;;;;;;23.80;5.78;;;7.90;84.70;;;;;;5085931;28;20114;-61
2022/02/22 10:48:27;;;;;;;30.98;6.05;;;7.90;84.70;;;;;;5070688;28;20134;-62
2022/02/22 10:50:53;;;;;;;25.10;5.38;;;7.90;84.30;;;;;;5089459;28;20020;-61
2022/02/22 10:53:24;;;;;;;33.92;6.65;;;7.90;84.20;;;;;;5088679;28;20367;-61
2022/02/22 10:55:50;;;;;;;29.58;5.40;;;7.90;84.10;;;;;;5089141;28;20020;-61
2022/02/22 10:58:16;;;;;;;24.13;5.13;;;7.90;84.10;;;;;;5089050;28;20485;-61
2022/02/22 11:00:42;;;;;;;33.95;5.90;;;8.00;84.20;;;;;;5071528;28;20115;-61
2022/02/22 11:03:08;;;;;;;30.63;5.13;;;8.00;84.00;;;;;;5089735;28;20099;-60
2022/02/22 11:05:35;;;;;;;28.92;6.47;;;8.00;83.80;;;;;;5070797;28;20055;-61
2022/02/22 11:08:01;;;;;;;19.67;4.50;;;8.10;83.70;;;;;;5089734;28;20497;-61
2022/02/22 11:10:31;;;;;;;32.67;6.57;;;8.00;83.70;;;;;;5088962;28;20115;-62
2022/02/22 11:13:01;;;;;;;24.92;5.95;;;8.00;83.60;;;;;;5075474;28;20064;-60
2022/02/22 11:15:37;;;;;;;35.20;6.13;;;8.00;83.50;;;;;;5090019;28;20036;-63
2022/02/22 11:18:19;;;;;;;27.63;5.95;;;8.10;83.40;;;;;;5068411;28;20036;-63
2022/02/22 11:20:45;;;;;;;29.15;5.55;;;8.10;83.20;;;;;;5055248;28;20055;-63
2022/02/22 11:23:22;;;;;;;149.55;19.40;;;8.10;83.30;;;;;;5073020;28;20051;-63
2022/02/22 11:25:49;;;;;;;52.17;8.23;;;8.10;83.40;;;;;;5054719;28;20024;-63
2022/02/22 11:28:15;;;;;;;32.60;6.07;;;8.10;83.00;;;;;;5072952;28;20483;-63
2022/02/22 11:30:43;;;;;;;34.88;6.28;;;8.10;82.90;;;;;;5076993;28;20058;-63
2022/02/22 11:33:15;;;;;;;29.38;7.13;;;8.10;83.00;;;;;;5080169;28;20029;-61
2022/02/22 11:35:57;;;;;;;29.35;5.47;;;8.20;83.00;;;;;;5080798;28;20051;-61
2022/02/22 11:38:25;;;;;;;31.75;6.85;;;8.10;83.00;;;;;;5080737;28;20330;-61
2022/02/22 11:40:53;;;;;;;29.27;6.47;;;8.10;83.10;;;;;;5092195;28;20024;-62
2022/02/22 11:43:21;;;;;;;30.00;5.30;;;8.10;83.40;;;;;;5091735;28;20108;-63
2022/02/22 11:45:49;;;;;;;33.50;6.10;;;8.10;84.00;;;;;;5091931;28;20059;-64
2022/02/22 11:48:25;;;;;;;33.78;6.45;;;8.10;84.50;;;;;;5090322;28;20047;-64
2022/02/22 11:50:52;;;;;;;37.20;6.88;;;8.10;85.00;;;;;;5092406;28;20028;-63
2022/02/22 11:53:24;;;;;;;35.28;7.72;;;8.10;85.60;;;;;;5073149;28;20103;-64
2022/02/22 11:55:51;;;;;;;30.92;6.68;;;8.00;86.00;;;;;;5070793;28;20054;-61
2022/02/22 11:58:22;;;;;;;33.38;6.78;;;8.00;86.50;;;;;;5074720;28;20554;-64
2022/02/22 12:00:55;;;;;;;27.63;6.63;;;8.00;87.00;;;;;;5080513;28;20475;-61
2022/02/22 12:03:23;;;;;;;34.30;7.15;;;8.00;87.20;;;;;;5088435;28;20379;-64
2022/02/22 12:05:53;;;;;;;38.58;6.97;;;7.90;87.50;;;;;;5092158;28;20043;-61
2022/02/22 12:08:24;;;;;;;30.17;6.20;;;7.90;87.80;;;;;;5065242;28;20368;-64
2022/02/22 12:11:01;;;;;;;29.42;6.47;;;7.90;87.90;;;;;;5085879;28;20428;-64
2022/02/22 12:13:38;;;;;;;35.08;7.72;;;7.90;88.10;;;;;;5091325;28;20356;-61
2022/02/22 12:16:20;;;;;;;31.38;6.57;;;8.00;88.30;;;;;;5091831;28;20513;-62
2022/02/22 12:18:51;;;;;;;34.10;7.13;;;8.00;88.50;;;;;;5087432;28;20068;-63
2022/02/22 12:21:21;;;;;;;34.63;8.68;;;8.00;88.50;;;;;;5085305;28;20024;-61
2022/02/22 12:23:48;;;;;;;32.10;7.38;;;8.00;88.80;;;;;;5087489;28;20055;-63
2022/02/22 12:26:18;;;;;;;24.17;6.07;;;8.00;89.00;;;;;;5089676;28;20489;-63
2022/02/22 12:28:49;;;;;;;33.75;8.77;;;8.00;89.10;;;;;;5086444;28;20057;-63
2022/02/22 12:31:31;;;;;;;32.42;7.57;;;8.00;89.20;;;;;;5088282;28;20028;-63
2022/02/22 12:34:19;;;;;;;32.53;8.48;;;8.10;89.40;;;;;;5090626;28;20030;-63
2022/02/22 12:36:52;;;;;;;29.85;7.05;;;8.10;89.40;;;;;;5091507;28;20854;-63
2022/02/22 12:39:20;;;;;;;36.28;7.97;;;8.10;89.50;;;;;;5066651;28;20537;-63
2022/02/22 12:41:49;;;;;;;37.70;8.00;;;8.20;89.70;;;;;;5088118;28;20023;-63
2022/02/22 12:44:18;;;;;;;29.85;7.38;;;8.20;90.00;;;;;;5089592;28;20066;-63
2022/02/22 12:46:46;;;;;;;35.63;8.32;;;8.20;89.90;;;;;;5090931;28;20020;-64
2022/02/22 12:49:14;;;;;;;33.45;8.55;;;8.30;90.10;;;;;;5071418;28;20097;-63